sensor_id;sensor_type;location;lat;lon;timestamp;P1;durP1;ratioP1;P2;durP2;ratioP2
11699;SDS011;5906;51.660;6.674;2023-04-24T00:01:12;4.80;;;3.80;;
11699;SDS011;5906;51.660;6.674;2023-04-24T00:03:40;5.27;;;3.70;;
11699;SDS011;5906;51.660;6.674;2023-04-24T00:06:07;7.27;;;3.57;;
11699;SDS011;5906;51.660;6.674;2023-04-24T00:08:35;8.33;;;3.33;;
11699;SDS011;5906;51.660;6.674;2023-04-24T00:11:02;3.30;;;3.00;;
11699;SDS011;5906;51.660;6.674;2023-04-24T00:13:29;7.93;;;3.50;;
11699;SDS011;5906;51.660;6.674;2023-04-24T00:15:56;7.20;;;4.03;;
11699;SDS011;5906;51.660;6.674;2023-04-24T00:18:26;4.60;;;4.10;;
11699;SDS011;5906;51.660;6.674;2023-04-24T00:20:53;5.23;;;3.83;;
11699;SDS011;5906;51.660;6.674;2023-04-24T00:23:20;5.93;;;3.90;;
11699;SDS011;5906;51.660;6.674;2023-04-24T00:25:47;4.33;;;3.13;;
11699;SDS011;5906;51.660;6.674;2023-04-24T00:28:14;12.10;;;3.90;;
11699;SDS011;5906;51.660;6.674;2023-04-24T00:30:41;5.80;;;4.17;;
11699;SDS011;5906;51.660;6.674;2023-04-24T00:33:08;4.50;;;4.10;;
11699;SDS011;5906;51.660;6.674;2023-04-24T00:35:35;4.00;;;3.60;;
11699;SDS011;5906;51.660;6.674;2023-04-24T00:38:02;5.03;;;4.47;;
11699;SDS011;5906;51.660;6.674;2023-04-24T00:40:29;6.60;;;4.00;;
11699;SDS011;5906;51.660;6.674;2023-04-24T00:42:56;3.63;;;3.30;;
11699;SDS011;5906;51.660;6.674;2023-04-24T00:45:24;7.00;;;4.20;;
11699;SDS011;5906;51.660;6.674;2023-04-24T00:47:52;7.60;;;3.90;;
11699;SDS011;5906;51.660;6.674;2023-04-24T00:50:20;6.23;;;4.90;;
11699;SDS011;5906;51.660;6.674;2023-04-24T00:52:47;6.80;;;5.10;;
11699;SDS011;5906;51.660;6.674;2023-04-24T00:55:15;7.37;;;4.70;;
11699;SDS011;5906;51.660;6.674;2023-04-24T00:57:42;7.67;;;5.47;;
11699;SDS011;5906;51.660;6.674;2023-04-24T01:00:10;5.57;;;4.80;;
11699;SDS011;5906;51.660;6.674;2023-04-24T01:02:41;6.70;;;5.03;;
11699;SDS011;5906;51.660;6.674;2023-04-24T01:05:13;7.90;;;4.60;;
11699;SDS011;5906;51.660;6.674;2023-04-24T01:07:41;5.90;;;5.23;;
11699;SDS011;5906;51.660;6.674;2023-04-24T01:10:12;9.53;;;5.07;;
11699;SDS011;5906;51.660;6.674;2023-04-24T01:12:39;5.47;;;4.87;;
11699;SDS011;5906;51.660;6.674;2023-04-24T01:15:07;6.87;;;5.70;;
11699;SDS011;5906;51.660;6.674;2023-04-24T01:17:35;7.47;;;5.33;;
11699;SDS011;5906;51.660;6.674;2023-04-24T01:20:02;6.90;;;5.37;;
11699;SDS011;5906;51.660;6.674;2023-04-24T01:22:34;7.53;;;6.00;;
11699;SDS011;5906;51.660;6.674;2023-04-24T01:25:02;9.90;;;6.10;;
11699;SDS011;5906;51.660;6.674;2023-04-24T01:27:29;10.70;;;6.53;;
11699;SDS011;5906;51.660;6.674;2023-04-24T01:29:56;9.00;;;5.90;;
11699;SDS011;5906;51.660;6.674;2023-04-24T01:32:24;9.47;;;6.40;;
11699;SDS011;5906;51.660;6.674;2023-04-24T01:34:52;14.17;;;7.13;;
11699;SDS011;5906;51.660;6.674;2023-04-24T01:37:19;9.83;;;6.40;;
11699;SDS011;5906;51.660;6.674;2023-04-24T01:39:46;7.50;;;6.73;;
11699;SDS011;5906;51.660;6.674;2023-04-24T01:42:12;9.30;;;7.07;;
11699;SDS011;5906;51.660;6.674;2023-04-24T01:44:41;10.93;;;6.73;;
11699;SDS011;5906;51.660;6.674;2023-04-24T01:47:08;9.63;;;6.77;;
11699;SDS011;5906;51.660;6.674;2023-04-24T01:49:35;12.37;;;7.63;;
11699;SDS011;5906;51.660;6.674;2023-04-24T01:52:04;15.40;;;7.23;;
11699;SDS011;5906;51.660;6.674;2023-04-24T01:54:31;9.90;;;6.77;;
11699;SDS011;5906;51.660;6.674;2023-04-24T01:56:58;15.10;;;7.80;;
11699;SDS011;5906;51.660;6.674;2023-04-24T01:59:27;11.83;;;6.97;;
11699;SDS011;5906;51.660;6.674;2023-04-24T02:01:55;11.03;;;6.77;;
11699;SDS011;5906;51.660;6.674;2023-04-24T02:04:21;11.27;;;8.70;;
11699;SDS011;5906;51.660;6.674;2023-04-24T02:06:48;10.83;;;7.90;;
11699;SDS011;5906;51.660;6.674;2023-04-24T02:09:15;14.20;;;8.00;;
11699;SDS011;5906;51.660;6.674;2023-04-24T02:11:42;12.17;;;7.40;;
11699;SDS011;5906;51.660;6.674;2023-04-24T02:14:09;13.30;;;8.43;;
11699;SDS011;5906;51.660;6.674;2023-04-24T02:16:36;10.67;;;8.03;;
11699;SDS011;5906;51.660;6.674;2023-04-24T02:19:04;15.77;;;8.37;;
11699;SDS011;5906;51.660;6.674;2023-04-24T02:21:31;13.03;;;8.07;;
11699;SDS011;5906;51.660;6.674;2023-04-24T02:23:58;17.60;;;8.50;;
11699;SDS011;5906;51.660;6.674;2023-04-24T02:26:26;13.00;;;8.90;;
11699;SDS011;5906;51.660;6.674;2023-04-24T02:28:53;11.87;;;9.17;;
11699;SDS011;5906;51.660;6.674;2023-04-24T02:31:20;15.90;;;10.00;;
11699;SDS011;5906;51.660;6.674;2023-04-24T02:33:47;13.23;;;9.13;;
11699;SDS011;5906;51.660;6.674;2023-04-24T02:36:14;16.43;;;9.97;;
11699;SDS011;5906;51.660;6.674;2023-04-24T02:38:41;19.17;;;11.20;;
11699;SDS011;5906;51.660;6.674;2023-04-24T02:41:07;19.70;;;10.60;;
11699;SDS011;5906;51.660;6.674;2023-04-24T02:43:34;18.70;;;9.63;;
11699;SDS011;5906;51.660;6.674;2023-04-24T02:46:01;16.57;;;10.47;;
11699;SDS011;5906;51.660;6.674;2023-04-24T02:48:29;19.50;;;11.03;;
11699;SDS011;5906;51.660;6.674;2023-04-24T02:50:56;16.50;;;10.57;;
11699;SDS011;5906;51.660;6.674;2023-04-24T02:53:23;18.87;;;10.97;;
11699;SDS011;5906;51.660;6.674;2023-04-24T02:55:50;20.07;;;11.00;;
11699;SDS011;5906;51.660;6.674;2023-04-24T02:58:17;18.10;;;11.37;;
11699;SDS011;5906;51.660;6.674;2023-04-24T03:00:46;23.87;;;11.93;;
11699;SDS011;5906;51.660;6.674;2023-04-24T03:03:13;27.60;;;11.73;;
11699;SDS011;5906;51.660;6.674;2023-04-24T03:05:42;19.17;;;11.43;;
11699;SDS011;5906;51.660;6.674;2023-04-24T03:08:09;29.10;;;11.83;;
11699;SDS011;5906;51.660;6.674;2023-04-24T03:10:39;22.53;;;11.33;;
11699;SDS011;5906;51.660;6.674;2023-04-24T03:13:07;22.57;;;12.40;;
11699;SDS011;5906;51.660;6.674;2023-04-24T03:15:34;18.50;;;11.40;;
11699;SDS011;5906;51.660;6.674;2023-04-24T03:18:00;19.13;;;11.43;;
11699;SDS011;5906;51.660;6.674;2023-04-24T03:20:29;21.40;;;11.57;;
11699;SDS011;5906;51.660;6.674;2023-04-24T03:22:55;18.97;;;11.77;;
11699;SDS011;5906;51.660;6.674;2023-04-24T03:25:23;18.57;;;12.03;;
11699;SDS011;5906;51.660;6.674;2023-04-24T03:27:50;21.23;;;12.57;;
11699;SDS011;5906;51.660;6.674;2023-04-24T03:30:17;23.60;;;12.60;;
11699;SDS011;5906;51.660;6.674;2023-04-24T03:32:44;19.50;;;12.17;;
11699;SDS011;5906;51.660;6.674;2023-04-24T03:35:11;22.90;;;13.10;;
11699;SDS011;5906;51.660;6.674;2023-04-24T03:37:38;19.40;;;11.80;;
11699;SDS011;5906;51.660;6.674;2023-04-24T03:40:06;22.33;;;13.90;;
11699;SDS011;5906;51.660;6.674;2023-04-24T03:42:34;23.13;;;13.90;;
11699;SDS011;5906;51.660;6.674;2023-04-24T03:45:04;23.23;;;13.07;;
11699;SDS011;5906;51.660;6.674;2023-04-24T03:47:32;24.13;;;12.63;;
11699;SDS011;5906;51.660;6.674;2023-04-24T03:49:59;23.07;;;13.10;;
11699;SDS011;5906;51.660;6.674;2023-04-24T03:52:26;23.60;;;13.50;;
11699;SDS011;5906;51.660;6.674;2023-04-24T03:54:53;25.37;;;13.80;;
11699;SDS011;5906;51.660;6.674;2023-04-24T03:57:20;26.20;;;12.57;;
11699;SDS011;5906;51.660;6.674;2023-04-24T03:59:47;18.73;;;11.43;;
11699;SDS011;5906;51.660;6.674;2023-04-24T04:02:14;29.33;;;13.33;;
11699;SDS011;5906;51.660;6.674;2023-04-24T04:04:41;25.47;;;12.80;;
11699;SDS011;5906;51.660;6.674;2023-04-24T04:07:08;28.37;;;13.37;;
11699;SDS011;5906;51.660;6.674;2023-04-24T04:09:35;21.03;;;13.13;;
11699;SDS011;5906;51.660;6.674;2023-04-24T04:12:02;24.20;;;12.93;;
11699;SDS011;5906;51.660;6.674;2023-04-24T04:14:29;26.17;;;14.10;;
11699;SDS011;5906;51.660;6.674;2023-04-24T04:16:57;26.43;;;13.20;;
11699;SDS011;5906;51.660;6.674;2023-04-24T04:19:24;32.53;;;12.83;;
11699;SDS011;5906;51.660;6.674;2023-04-24T04:21:51;27.60;;;13.80;;
11699;SDS011;5906;51.660;6.674;2023-04-24T04:24:20;27.90;;;14.27;;
11699;SDS011;5906;51.660;6.674;2023-04-24T04:26:50;22.53;;;12.87;;
11699;SDS011;5906;51.660;6.674;2023-04-24T04:29:18;23.00;;;12.40;;
11699;SDS011;5906;51.660;6.674;2023-04-24T04:31:46;33.70;;;14.30;;
11699;SDS011;5906;51.660;6.674;2023-04-24T04:34:15;25.20;;;11.83;;
11699;SDS011;5906;51.660;6.674;2023-04-24T04:36:41;23.80;;;12.43;;
11699;SDS011;5906;51.660;6.674;2023-04-24T04:39:10;24.30;;;12.67;;
11699;SDS011;5906;51.660;6.674;2023-04-24T04:41:37;20.87;;;13.40;;
11699;SDS011;5906;51.660;6.674;2023-04-24T04:44:06;25.40;;;11.77;;
11699;SDS011;5906;51.660;6.674;2023-04-24T04:46:34;20.30;;;11.50;;
11699;SDS011;5906;51.660;6.674;2023-04-24T04:49:04;24.20;;;11.70;;
11699;SDS011;5906;51.660;6.674;2023-04-24T04:51:31;18.53;;;11.90;;
11699;SDS011;5906;51.660;6.674;2023-04-24T04:53:58;25.70;;;12.27;;
11699;SDS011;5906;51.660;6.674;2023-04-24T04:56:25;24.43;;;12.93;;
11699;SDS011;5906;51.660;6.674;2023-04-24T04:58:52;18.70;;;10.97;;
11699;SDS011;5906;51.660;6.674;2023-04-24T05:01:19;15.77;;;10.53;;
11699;SDS011;5906;51.660;6.674;2023-04-24T05:03:46;21.07;;;11.57;;
11699;SDS011;5906;51.660;6.674;2023-04-24T05:06:13;19.30;;;11.13;;
11699;SDS011;5906;51.660;6.674;2023-04-24T05:08:41;18.70;;;12.77;;
11699;SDS011;5906;51.660;6.674;2023-04-24T05:11:08;22.60;;;11.67;;
11699;SDS011;5906;51.660;6.674;2023-04-24T05:13:35;21.90;;;11.63;;
11699;SDS011;5906;51.660;6.674;2023-04-24T05:16:06;20.80;;;12.27;;
11699;SDS011;5906;51.660;6.674;2023-04-24T05:18:34;19.60;;;11.70;;
11699;SDS011;5906;51.660;6.674;2023-04-24T05:21:01;19.40;;;11.03;;
11699;SDS011;5906;51.660;6.674;2023-04-24T05:23:28;17.30;;;11.77;;
11699;SDS011;5906;51.660;6.674;2023-04-24T05:25:55;14.60;;;10.00;;
11699;SDS011;5906;51.660;6.674;2023-04-24T05:28:23;16.60;;;10.77;;
11699;SDS011;5906;51.660;6.674;2023-04-24T05:30:54;16.47;;;10.07;;
11699;SDS011;5906;51.660;6.674;2023-04-24T05:33:22;15.80;;;10.70;;
11699;SDS011;5906;51.660;6.674;2023-04-24T05:35:49;19.90;;;10.50;;
11699;SDS011;5906;51.660;6.674;2023-04-24T05:38:16;14.13;;;8.33;;
11699;SDS011;5906;51.660;6.674;2023-04-24T05:40:45;13.90;;;9.03;;
11699;SDS011;5906;51.660;6.674;2023-04-24T05:43:13;13.70;;;10.20;;
11699;SDS011;5906;51.660;6.674;2023-04-24T05:45:39;17.83;;;10.53;;
11699;SDS011;5906;51.660;6.674;2023-04-24T05:48:06;13.20;;;9.10;;
11699;SDS011;5906;51.660;6.674;2023-04-24T05:50:33;21.20;;;10.03;;
11699;SDS011;5906;51.660;6.674;2023-04-24T05:53:02;15.73;;;9.93;;
11699;SDS011;5906;51.660;6.674;2023-04-24T05:55:30;14.17;;;9.87;;
11699;SDS011;5906;51.660;6.674;2023-04-24T05:57:57;15.60;;;9.37;;
11699;SDS011;5906;51.660;6.674;2023-04-24T06:00:25;15.20;;;9.33;;
11699;SDS011;5906;51.660;6.674;2023-04-24T06:02:53;16.30;;;10.30;;
11699;SDS011;5906;51.660;6.674;2023-04-24T06:05:21;14.03;;;10.23;;
11699;SDS011;5906;51.660;6.674;2023-04-24T06:07:48;15.80;;;9.30;;
11699;SDS011;5906;51.660;6.674;2023-04-24T06:10:15;15.23;;;9.37;;
11699;SDS011;5906;51.660;6.674;2023-04-24T06:12:42;12.17;;;8.80;;
11699;SDS011;5906;51.660;6.674;2023-04-24T06:15:09;15.20;;;8.90;;
11699;SDS011;5906;51.660;6.674;2023-04-24T06:17:36;14.60;;;8.93;;
11699;SDS011;5906;51.660;6.674;2023-04-24T06:20:04;13.80;;;9.00;;
11699;SDS011;5906;51.660;6.674;2023-04-24T06:22:33;15.03;;;10.30;;
11699;SDS011;5906;51.660;6.674;2023-04-24T06:25:00;15.53;;;9.30;;
11699;SDS011;5906;51.660;6.674;2023-04-24T06:27:27;12.83;;;9.27;;
11699;SDS011;5906;51.660;6.674;2023-04-24T06:29:54;13.40;;;10.00;;
11699;SDS011;5906;51.660;6.674;2023-04-24T06:32:22;13.80;;;8.70;;
11699;SDS011;5906;51.660;6.674;2023-04-24T06:34:51;12.73;;;9.20;;
11699;SDS011;5906;51.660;6.674;2023-04-24T06:37:19;14.33;;;8.90;;
11699;SDS011;5906;51.660;6.674;2023-04-24T06:39:47;17.80;;;8.57;;
11699;SDS011;5906;51.660;6.674;2023-04-24T06:42:13;13.60;;;8.57;;
11699;SDS011;5906;51.660;6.674;2023-04-24T06:44:41;11.60;;;8.70;;
11699;SDS011;5906;51.660;6.674;2023-04-24T06:47:08;9.77;;;8.10;;
11699;SDS011;5906;51.660;6.674;2023-04-24T06:49:41;13.10;;;8.47;;
11699;SDS011;5906;51.660;6.674;2023-04-24T06:52:09;14.30;;;7.87;;
11699;SDS011;5906;51.660;6.674;2023-04-24T06:54:36;13.23;;;8.83;;
11699;SDS011;5906;51.660;6.674;2023-04-24T06:57:02;10.33;;;8.40;;
11699;SDS011;5906;51.660;6.674;2023-04-24T06:59:30;10.60;;;7.67;;
11699;SDS011;5906;51.660;6.674;2023-04-24T07:01:56;14.50;;;9.30;;
11699;SDS011;5906;51.660;6.674;2023-04-24T07:04:24;10.10;;;7.80;;
11699;SDS011;5906;51.660;6.674;2023-04-24T07:06:52;9.70;;;7.17;;
11699;SDS011;5906;51.660;6.674;2023-04-24T07:09:22;11.20;;;7.23;;
11699;SDS011;5906;51.660;6.674;2023-04-24T07:11:51;11.03;;;7.00;;
11699;SDS011;5906;51.660;6.674;2023-04-24T07:14:20;9.27;;;6.37;;
11699;SDS011;5906;51.660;6.674;2023-04-24T07:16:47;9.83;;;6.80;;
11699;SDS011;5906;51.660;6.674;2023-04-24T07:19:14;10.70;;;6.20;;
11699;SDS011;5906;51.660;6.674;2023-04-24T07:21:41;7.10;;;5.67;;
11699;SDS011;5906;51.660;6.674;2023-04-24T07:24:08;8.33;;;5.73;;
11699;SDS011;5906;51.660;6.674;2023-04-24T07:26:37;7.90;;;6.20;;
11699;SDS011;5906;51.660;6.674;2023-04-24T07:29:06;8.60;;;6.20;;
11699;SDS011;5906;51.660;6.674;2023-04-24T07:31:33;5.80;;;5.20;;
11699;SDS011;5906;51.660;6.674;2023-04-24T07:34:00;4.93;;;4.23;;
11699;SDS011;5906;51.660;6.674;2023-04-24T07:36:28;7.77;;;5.90;;
11699;SDS011;5906;51.660;6.674;2023-04-24T07:38:55;13.00;;;4.27;;
11699;SDS011;5906;51.660;6.674;2023-04-24T07:41:24;5.50;;;3.97;;
11699;SDS011;5906;51.660;6.674;2023-04-24T07:43:51;4.73;;;3.80;;
11699;SDS011;5906;51.660;6.674;2023-04-24T07:46:19;3.50;;;3.20;;
11699;SDS011;5906;51.660;6.674;2023-04-24T07:48:47;3.80;;;3.33;;
11699;SDS011;5906;51.660;6.674;2023-04-24T07:51:30;5.03;;;2.90;;
11699;SDS011;5906;51.660;6.674;2023-04-24T07:53:59;2.97;;;2.77;;
11699;SDS011;5906;51.660;6.674;2023-04-24T07:56:27;3.03;;;2.70;;
11699;SDS011;5906;51.660;6.674;2023-04-24T07:58:57;3.30;;;2.60;;
11699;SDS011;5906;51.660;6.674;2023-04-24T08:01:24;3.90;;;3.47;;
11699;SDS011;5906;51.660;6.674;2023-04-24T08:03:51;3.30;;;3.00;;
11699;SDS011;5906;51.660;6.674;2023-04-24T08:06:19;3.17;;;2.87;;
11699;SDS011;5906;51.660;6.674;2023-04-24T08:08:46;3.43;;;3.20;;
11699;SDS011;5906;51.660;6.674;2023-04-24T08:11:13;2.40;;;2.17;;
11699;SDS011;5906;51.660;6.674;2023-04-24T08:13:40;3.63;;;3.33;;
11699;SDS011;5906;51.660;6.674;2023-04-24T08:16:07;6.40;;;3.33;;
11699;SDS011;5906;51.660;6.674;2023-04-24T08:18:34;3.90;;;3.43;;
11699;SDS011;5906;51.660;6.674;2023-04-24T08:21:02;3.00;;;2.67;;
11699;SDS011;5906;51.660;6.674;2023-04-24T08:23:29;3.70;;;3.40;;
11699;SDS011;5906;51.660;6.674;2023-04-24T08:25:56;3.73;;;3.43;;
11699;SDS011;5906;51.660;6.674;2023-04-24T08:28:24;3.50;;;3.20;;
11699;SDS011;5906;51.660;6.674;2023-04-24T08:30:51;3.73;;;3.33;;
11699;SDS011;5906;51.660;6.674;2023-04-24T08:33:21;4.17;;;3.73;;
11699;SDS011;5906;51.660;6.674;2023-04-24T08:35:49;3.47;;;3.17;;
11699;SDS011;5906;51.660;6.674;2023-04-24T08:38:16;4.00;;;3.70;;
11699;SDS011;5906;51.660;6.674;2023-04-24T08:40:43;4.03;;;3.57;;
11699;SDS011;5906;51.660;6.674;2023-04-24T08:43:12;4.03;;;3.63;;
11699;SDS011;5906;51.660;6.674;2023-04-24T08:45:41;3.60;;;3.30;;
11699;SDS011;5906;51.660;6.674;2023-04-24T08:48:08;3.23;;;2.93;;
11699;SDS011;5906;51.660;6.674;2023-04-24T08:50:52;2.70;;;2.50;;
11699;SDS011;5906;51.660;6.674;2023-04-24T08:53:20;3.10;;;2.80;;
11699;SDS011;5906;51.660;6.674;2023-04-24T08:55:48;3.40;;;2.13;;
11699;SDS011;5906;51.660;6.674;2023-04-24T08:58:16;8.80;;;2.80;;
11699;SDS011;5906;51.660;6.674;2023-04-24T09:00:44;2.07;;;1.97;;
11699;SDS011;5906;51.660;6.674;2023-04-24T09:03:13;2.83;;;2.63;;
11699;SDS011;5906;51.660;6.674;2023-04-24T09:05:43;3.30;;;3.00;;
11699;SDS011;5906;51.660;6.674;2023-04-24T09:08:16;3.33;;;3.00;;
11699;SDS011;5906;51.660;6.674;2023-04-24T09:10:44;5.53;;;5.03;;
11699;SDS011;5906;51.660;6.674;2023-04-24T09:13:12;14.93;;;7.07;;
11699;SDS011;5906;51.660;6.674;2023-04-24T09:15:40;9.43;;;6.10;;
11699;SDS011;5906;51.660;6.674;2023-04-24T09:18:07;12.03;;;7.30;;
11699;SDS011;5906;51.660;6.674;2023-04-24T09:20:34;15.83;;;8.17;;
11699;SDS011;5906;51.660;6.674;2023-04-24T09:23:21;10.43;;;6.90;;
11699;SDS011;5906;51.660;6.674;2023-04-24T09:25:48;12.73;;;7.80;;
11699;SDS011;5906;51.660;6.674;2023-04-24T09:28:25;13.00;;;7.03;;
11699;SDS011;5906;51.660;6.674;2023-04-24T09:31:06;14.70;;;8.17;;
11699;SDS011;5906;51.660;6.674;2023-04-24T09:33:34;11.20;;;7.33;;
11699;SDS011;5906;51.660;6.674;2023-04-24T09:36:02;11.23;;;7.23;;
11699;SDS011;5906;51.660;6.674;2023-04-24T09:41:01;10.73;;;7.30;;
11699;SDS011;5906;51.660;6.674;2023-04-24T09:43:33;13.50;;;7.47;;
11699;SDS011;5906;51.660;6.674;2023-04-24T09:46:05;12.13;;;6.67;;
11699;SDS011;5906;51.660;6.674;2023-04-24T09:48:34;16.37;;;8.20;;
11699;SDS011;5906;51.660;6.674;2023-04-24T09:51:03;12.60;;;8.30;;
11699;SDS011;5906;51.660;6.674;2023-04-24T09:53:33;12.13;;;7.33;;
11699;SDS011;5906;51.660;6.674;2023-04-24T09:56:06;12.30;;;7.83;;
11699;SDS011;5906;51.660;6.674;2023-04-24T09:58:38;14.67;;;8.20;;
11699;SDS011;5906;51.660;6.674;2023-04-24T10:01:06;14.83;;;8.40;;
11699;SDS011;5906;51.660;6.674;2023-04-24T10:03:33;12.30;;;7.67;;
11699;SDS011;5906;51.660;6.674;2023-04-24T10:06:02;14.50;;;7.50;;
11699;SDS011;5906;51.660;6.674;2023-04-24T10:08:35;9.97;;;7.20;;
11699;SDS011;5906;51.660;6.674;2023-04-24T10:11:03;14.87;;;7.87;;
11699;SDS011;5906;51.660;6.674;2023-04-24T10:13:31;10.00;;;7.60;;
11699;SDS011;5906;51.660;6.674;2023-04-24T10:15:59;10.90;;;7.20;;
11699;SDS011;5906;51.660;6.674;2023-04-24T10:18:27;11.90;;;6.40;;
11699;SDS011;5906;51.660;6.674;2023-04-24T10:20:56;14.30;;;6.90;;
11699;SDS011;5906;51.660;6.674;2023-04-24T10:23:24;7.93;;;6.17;;
11699;SDS011;5906;51.660;6.674;2023-04-24T10:25:52;11.90;;;6.23;;
11699;SDS011;5906;51.660;6.674;2023-04-24T10:28:19;11.80;;;5.60;;
11699;SDS011;5906;51.660;6.674;2023-04-24T10:30:48;16.60;;;6.57;;
11699;SDS011;5906;51.660;6.674;2023-04-24T10:33:17;9.00;;;5.10;;
11699;SDS011;5906;51.660;6.674;2023-04-24T10:35:45;13.13;;;5.80;;
11699;SDS011;5906;51.660;6.674;2023-04-24T10:38:21;10.50;;;5.23;;
11699;SDS011;5906;51.660;6.674;2023-04-24T10:40:51;16.23;;;5.97;;
11699;SDS011;5906;51.660;6.674;2023-04-24T10:43:23;19.00;;;5.43;;
11699;SDS011;5906;51.660;6.674;2023-04-24T10:46:03;17.60;;;6.60;;
11699;SDS011;5906;51.660;6.674;2023-04-24T10:48:32;18.13;;;6.63;;
11699;SDS011;5906;51.660;6.674;2023-04-24T10:51:00;15.90;;;5.40;;
11699;SDS011;5906;51.660;6.674;2023-04-24T10:53:28;11.80;;;5.03;;
11699;SDS011;5906;51.660;6.674;2023-04-24T10:56:07;10.00;;;5.47;;
11699;SDS011;5906;51.660;6.674;2023-04-24T10:58:37;22.47;;;5.43;;
11699;SDS011;5906;51.660;6.674;2023-04-24T11:01:45;17.03;;;5.60;;
11699;SDS011;5906;51.660;6.674;2023-04-24T11:04:04;13.40;;;4.70;;
11699;SDS011;5906;51.660;6.674;2023-04-24T11:06:32;9.67;;;4.70;;
11699;SDS011;5906;51.660;6.674;2023-04-24T11:09:03;6.57;;;4.10;;
11699;SDS011;5906;51.660;6.674;2023-04-24T11:11:31;9.27;;;3.97;;
11699;SDS011;5906;51.660;6.674;2023-04-24T11:16:31;8.20;;;4.23;;
11699;SDS011;5906;51.660;6.674;2023-04-24T11:24:30;11.07;;;4.10;;
11699;SDS011;5906;51.660;6.674;2023-04-24T11:27:16;10.57;;;3.50;;
11699;SDS011;5906;51.660;6.674;2023-04-24T11:32:25;8.10;;;3.13;;
11699;SDS011;5906;51.660;6.674;2023-04-24T11:37:46;10.10;;;3.40;;
11699;SDS011;5906;51.660;6.674;2023-04-24T11:40:20;7.40;;;3.13;;
11699;SDS011;5906;51.660;6.674;2023-04-24T11:42:50;6.53;;;3.10;;
11699;SDS011;5906;51.660;6.674;2023-04-24T11:45:28;5.77;;;3.43;;
11699;SDS011;5906;51.660;6.674;2023-04-24T11:47:56;11.63;;;3.23;;
11699;SDS011;5906;51.660;6.674;2023-04-24T11:50:24;12.00;;;3.30;;
11699;SDS011;5906;51.660;6.674;2023-04-24T11:52:53;7.90;;;3.07;;
11699;SDS011;5906;51.660;6.674;2023-04-24T11:57:53;6.13;;;3.10;;
11699;SDS011;5906;51.660;6.674;2023-04-24T12:00:31;6.53;;;3.87;;
11699;SDS011;5906;51.660;6.674;2023-04-24T12:03:03;4.77;;;2.60;;
11699;SDS011;5906;51.660;6.674;2023-04-24T12:05:35;4.40;;;2.30;;
11699;SDS011;5906;51.660;6.674;2023-04-24T12:08:02;4.17;;;2.90;;
11699;SDS011;5906;51.660;6.674;2023-04-24T12:10:30;4.70;;;2.93;;
11699;SDS011;5906;51.660;6.674;2023-04-24T12:12:58;6.17;;;2.80;;
11699;SDS011;5906;51.660;6.674;2023-04-24T12:15:26;6.87;;;2.70;;
11699;SDS011;5906;51.660;6.674;2023-04-24T12:17:54;7.83;;;2.60;;
11699;SDS011;5906;51.660;6.674;2023-04-24T12:20:26;5.90;;;3.00;;
11699;SDS011;5906;51.660;6.674;2023-04-24T12:22:55;6.27;;;2.40;;
11699;SDS011;5906;51.660;6.674;2023-04-24T12:25:24;3.30;;;2.10;;
11699;SDS011;5906;51.660;6.674;2023-04-24T12:28:08;6.17;;;3.30;;
11699;SDS011;5906;51.660;6.674;2023-04-24T12:30:40;4.07;;;2.47;;
11699;SDS011;5906;51.660;6.674;2023-04-24T12:33:11;3.43;;;2.47;;
11699;SDS011;5906;51.660;6.674;2023-04-24T12:35:39;2.80;;;2.30;;
11699;SDS011;5906;51.660;6.674;2023-04-24T12:38:11;5.13;;;3.03;;
11699;SDS011;5906;51.660;6.674;2023-04-24T12:40:40;6.97;;;3.30;;
11699;SDS011;5906;51.660;6.674;2023-04-24T12:43:14;5.13;;;3.50;;
11699;SDS011;5906;51.660;6.674;2023-04-24T12:45:42;4.10;;;3.20;;
11699;SDS011;5906;51.660;6.674;2023-04-24T12:48:11;5.93;;;3.27;;
11699;SDS011;5906;51.660;6.674;2023-04-24T12:50:40;7.60;;;2.83;;
11699;SDS011;5906;51.660;6.674;2023-04-24T12:53:11;6.27;;;3.17;;
11699;SDS011;5906;51.660;6.674;2023-04-24T12:55:38;6.73;;;3.10;;
11699;SDS011;5906;51.660;6.674;2023-04-24T12:58:04;5.70;;;2.97;;
11699;SDS011;5906;51.660;6.674;2023-04-24T13:00:32;5.20;;;3.37;;
11699;SDS011;5906;51.660;6.674;2023-04-24T13:02:59;4.27;;;2.70;;
11699;SDS011;5906;51.660;6.674;2023-04-24T13:05:27;6.60;;;3.07;;
11699;SDS011;5906;51.660;6.674;2023-04-24T13:07:54;4.43;;;3.50;;
11699;SDS011;5906;51.660;6.674;2023-04-24T13:10:21;4.40;;;2.80;;
11699;SDS011;5906;51.660;6.674;2023-04-24T13:12:48;4.40;;;2.80;;
11699;SDS011;5906;51.660;6.674;2023-04-24T13:15:15;3.53;;;3.03;;
11699;SDS011;5906;51.660;6.674;2023-04-24T13:17:42;4.13;;;3.10;;
11699;SDS011;5906;51.660;6.674;2023-04-24T13:20:09;5.03;;;3.20;;
11699;SDS011;5906;51.660;6.674;2023-04-24T13:22:36;3.93;;;2.90;;
11699;SDS011;5906;51.660;6.674;2023-04-24T13:25:03;3.90;;;3.13;;
11699;SDS011;5906;51.660;6.674;2023-04-24T13:27:32;5.37;;;3.30;;
11699;SDS011;5906;51.660;6.674;2023-04-24T13:29:59;8.30;;;2.73;;
11699;SDS011;5906;51.660;6.674;2023-04-24T13:32:27;5.77;;;3.30;;
11699;SDS011;5906;51.660;6.674;2023-04-24T13:34:55;6.50;;;3.17;;
11699;SDS011;5906;51.660;6.674;2023-04-24T13:37:23;5.03;;;3.03;;
11699;SDS011;5906;51.660;6.674;2023-04-24T13:39:50;5.67;;;3.50;;
11699;SDS011;5906;51.660;6.674;2023-04-24T13:42:17;7.43;;;3.47;;
11699;SDS011;5906;51.660;6.674;2023-04-24T13:44:46;5.53;;;3.00;;
11699;SDS011;5906;51.660;6.674;2023-04-24T13:47:13;8.03;;;3.43;;
11699;SDS011;5906;51.660;6.674;2023-04-24T13:49:40;7.70;;;3.40;;
11699;SDS011;5906;51.660;6.674;2023-04-24T13:52:07;7.33;;;3.27;;
11699;SDS011;5906;51.660;6.674;2023-04-24T13:54:34;6.80;;;2.93;;
11699;SDS011;5906;51.660;6.674;2023-04-24T13:57:01;4.73;;;3.40;;
11699;SDS011;5906;51.660;6.674;2023-04-24T13:59:29;10.03;;;3.60;;
11699;SDS011;5906;51.660;6.674;2023-04-24T14:01:57;8.03;;;4.30;;
11699;SDS011;5906;51.660;6.674;2023-04-24T14:04:24;7.40;;;4.00;;
11699;SDS011;5906;51.660;6.674;2023-04-24T14:06:51;6.47;;;4.00;;
11699;SDS011;5906;51.660;6.674;2023-04-24T14:09:18;4.20;;;3.70;;
11699;SDS011;5906;51.660;6.674;2023-04-24T14:11:45;4.90;;;3.70;;
11699;SDS011;5906;51.660;6.674;2023-04-24T14:14:12;10.13;;;5.33;;
11699;SDS011;5906;51.660;6.674;2023-04-24T14:16:39;8.70;;;4.33;;
11699;SDS011;5906;51.660;6.674;2023-04-24T14:19:06;7.70;;;4.57;;
11699;SDS011;5906;51.660;6.674;2023-04-24T14:21:33;6.33;;;4.13;;
11699;SDS011;5906;51.660;6.674;2023-04-24T14:24:00;7.20;;;4.20;;
11699;SDS011;5906;51.660;6.674;2023-04-24T14:26:27;7.00;;;3.83;;
11699;SDS011;5906;51.660;6.674;2023-04-24T14:28:54;5.23;;;3.93;;
11699;SDS011;5906;51.660;6.674;2023-04-24T14:31:39;9.10;;;4.33;;
11699;SDS011;5906;51.660;6.674;2023-04-24T14:34:06;8.90;;;3.87;;
11699;SDS011;5906;51.660;6.674;2023-04-24T14:36:33;4.33;;;3.17;;
11699;SDS011;5906;51.660;6.674;2023-04-24T14:39:00;7.57;;;3.33;;
11699;SDS011;5906;51.660;6.674;2023-04-24T14:41:29;3.87;;;2.77;;
11699;SDS011;5906;51.660;6.674;2023-04-24T14:43:56;4.30;;;3.23;;
11699;SDS011;5906;51.660;6.674;2023-04-24T14:46:23;3.40;;;2.43;;
11699;SDS011;5906;51.660;6.674;2023-04-24T14:48:50;3.17;;;2.33;;
11699;SDS011;5906;51.660;6.674;2023-04-24T14:51:17;4.93;;;2.23;;
11699;SDS011;5906;51.660;6.674;2023-04-24T14:53:44;4.23;;;2.77;;
11699;SDS011;5906;51.660;6.674;2023-04-24T14:56:14;8.53;;;4.30;;
11699;SDS011;5906;51.660;6.674;2023-04-24T14:58:41;4.70;;;2.87;;
11699;SDS011;5906;51.660;6.674;2023-04-24T15:01:09;4.13;;;2.67;;
11699;SDS011;5906;51.660;6.674;2023-04-24T15:03:37;3.47;;;2.40;;
11699;SDS011;5906;51.660;6.674;2023-04-24T15:06:04;13.50;;;3.00;;
11699;SDS011;5906;51.660;6.674;2023-04-24T15:08:31;4.60;;;2.77;;
11699;SDS011;5906;51.660;6.674;2023-04-24T15:10:59;3.53;;;3.20;;
11699;SDS011;5906;51.660;6.674;2023-04-24T15:13:26;2.53;;;2.33;;
11699;SDS011;5906;51.660;6.674;2023-04-24T15:15:52;6.93;;;2.50;;